createdAt,value
2023-01-15T00:03:49.019Z,0.77
2023-01-15T00:08:06.206Z,0.90
2023-01-15T00:12:23.334Z,0.60
2023-01-15T00:16:40.712Z,0.90
2023-01-15T00:21:06.560Z,0.73
2023-01-15T00:25:42.470Z,0.82
2023-01-15T00:29:59.581Z,0.80
2023-01-15T00:34:16.653Z,0.90
2023-01-15T00:38:33.771Z,0.90
2023-01-15T00:42:54.100Z,0.90
2023-01-15T00:47:14.873Z,0.80
2023-01-15T00:51:32.799Z,0.90
2023-01-15T00:55:49.873Z,1.23
2023-01-15T01:00:07.403Z,1.00
2023-01-15T01:04:24.533Z,0.85
2023-01-15T01:08:41.711Z,0.68
2023-01-15T01:12:58.783Z,0.63
2023-01-15T01:17:15.865Z,0.82
2023-01-15T01:21:33.267Z,1.02
2023-01-15T01:25:50.817Z,0.90
2023-01-15T01:30:08.674Z,0.77
2023-01-15T01:34:25.840Z,0.90
2023-01-15T01:38:42.939Z,0.73
2023-01-15T01:43:00.013Z,0.80
2023-01-15T01:47:22.888Z,0.85
2023-01-15T01:51:50.688Z,1.10
2023-01-15T01:56:09.709Z,0.90
2023-01-15T02:00:28.254Z,0.73
2023-01-15T02:04:45.653Z,1.00
2023-01-15T02:09:03.207Z,0.70
2023-01-15T02:13:32.993Z,0.70
2023-01-15T02:17:59.662Z,0.70
2023-01-15T02:22:49.573Z,0.75
2023-01-15T02:31:37.549Z,0.70
2023-01-15T02:36:01.010Z,0.80
2023-01-15T02:40:21.035Z,0.80
2023-01-15T02:44:45.253Z,0.90
2023-01-15T02:49:04.867Z,0.60
2023-01-15T02:53:26.800Z,0.60
2023-01-15T02:57:48.767Z,0.50
2023-01-15T03:02:29.855Z,0.70
2023-01-15T03:06:54.890Z,0.68
2023-01-15T03:11:14.894Z,0.60
2023-01-15T03:16:22.277Z,0.85
2023-01-15T03:20:48.385Z,0.60
2023-01-15T03:25:16.509Z,0.68
2023-01-15T03:29:38.152Z,0.57
2023-01-15T03:33:55.224Z,0.70
2023-01-15T03:38:18.776Z,0.50
2023-01-15T03:43:20.653Z,0.70
2023-01-15T03:48:20.402Z,0.70
2023-01-15T03:52:49.766Z,0.50
2023-01-15T03:57:36.585Z,0.60
2023-01-15T04:01:54.749Z,0.65
2023-01-15T04:06:11.969Z,0.75
2023-01-15T04:10:29.153Z,0.60
2023-01-15T04:14:46.236Z,0.68
2023-01-15T04:19:03.337Z,0.50
2023-01-15T04:23:20.528Z,0.75
2023-01-15T04:27:37.727Z,0.47
2023-01-15T04:31:57.625Z,0.50
2023-01-15T04:36:14.822Z,0.50
2023-01-15T04:40:50.660Z,0.38
2023-01-15T04:45:08.599Z,0.47
2023-01-15T04:49:26.532Z,0.30
2023-01-15T04:53:43.702Z,0.60
2023-01-15T04:58:00.762Z,0.50
2023-01-15T05:02:18.109Z,0.45
2023-01-15T05:06:35.548Z,0.45
2023-01-15T05:10:52.844Z,0.30
2023-01-15T05:15:10.351Z,0.32
2023-01-15T05:19:27.500Z,0.40
2023-01-15T05:23:45.134Z,0.40
2023-01-15T05:28:02.312Z,0.38
2023-01-15T05:32:19.374Z,0.40
2023-01-15T05:36:37.573Z,0.68
2023-01-15T05:40:54.831Z,0.90
2023-01-15T05:45:11.893Z,0.93
2023-01-15T05:49:31.334Z,0.90
2023-01-15T05:53:48.510Z,1.10
2023-01-15T05:58:05.605Z,1.10
2023-01-15T06:02:22.882Z,1.40
2023-01-15T06:06:41.188Z,1.52
2023-01-15T06:10:58.279Z,2.05
2023-01-15T06:15:15.371Z,2.47
2023-01-15T06:19:33.290Z,1.90
2023-01-15T06:23:53.459Z,1.10
2023-01-15T06:28:11.580Z,0.85
2023-01-15T06:32:28.691Z,0.50
2023-01-15T06:36:45.771Z,0.50
2023-01-15T06:41:26.555Z,0.40
2023-01-15T06:46:02.565Z,0.43
2023-01-15T06:50:19.749Z,0.50
2023-01-15T06:54:36.850Z,0.57
2023-01-15T06:58:56.020Z,0.93
2023-01-15T07:03:14.381Z,0.60
2023-01-15T07:07:31.452Z,0.40
2023-01-15T07:11:51.215Z,0.40
2023-01-15T07:16:26.810Z,0.50
2023-01-15T07:20:43.887Z,0.60
2023-01-15T07:25:01.537Z,1.25
2023-01-15T07:29:18.779Z,2.55
2023-01-15T07:33:35.836Z,3.38
2023-01-15T07:37:52.944Z,4.32
2023-01-15T07:42:29.401Z,5.10
2023-01-15T07:47:05.950Z,5.57
2023-01-15T07:51:23.047Z,5.28
2023-01-15T07:55:40.120Z,6.03
2023-01-15T07:59:57.412Z,6.90
2023-01-15T08:04:14.527Z,6.22
2023-01-15T08:08:31.619Z,5.97
2023-01-15T08:13:09.353Z,6.20
2023-01-15T08:17:26.472Z,6.60
2023-01-15T08:21:43.705Z,5.20
2023-01-15T08:26:01.197Z,1.65
2023-01-15T08:30:24.385Z,2.17
2023-01-15T08:34:41.557Z,1.00
2023-01-15T08:38:58.625Z,0.85
2023-01-15T08:43:15.744Z,0.85
2023-01-15T08:47:32.935Z,0.60
2023-01-15T08:51:51.886Z,1.45
2023-01-15T08:56:17.121Z,2.15
2023-01-15T09:00:34.438Z,2.17
2023-01-15T09:04:52.780Z,1.95
2023-01-15T09:09:10.904Z,0.90
2023-01-15T09:13:29.590Z,0.40
2023-01-15T09:17:47.065Z,3.20
2023-01-15T09:22:04.231Z,1.00
2023-01-15T09:26:31.490Z,1.42
2023-01-15T09:30:48.749Z,1.60
2023-01-15T09:35:06.331Z,0.82
2023-01-15T09:39:23.440Z,1.38
2023-01-15T09:43:51.290Z,0.60
2023-01-15T09:48:32.957Z,1.27
2023-01-15T09:52:50.030Z,1.35
2023-01-15T09:57:13.479Z,1.92
2023-01-15T10:01:32.885Z,0.90
2023-01-15T10:06:22.658Z,0.70
2023-01-15T10:10:46.638Z,0.70
2023-01-15T10:15:24.125Z,0.55
2023-01-15T10:19:44.798Z,0.50
2023-01-15T10:24:19.740Z,0.57
2023-01-15T10:28:54.950Z,0.40
2023-01-15T10:33:34.435Z,1.25
2023-01-15T10:37:57.055Z,1.30
2023-01-15T10:42:40.703Z,0.77
2023-01-15T10:47:01.487Z,0.65
2023-01-15T10:51:26.677Z,0.57
2023-01-15T10:55:49.079Z,0.90
2023-01-15T11:00:07.104Z,0.68
2023-01-15T11:04:26.942Z,0.55
2023-01-15T11:09:09.629Z,1.20
2023-01-15T11:13:46.431Z,3.47
2023-01-15T11:18:22.475Z,1.45
2023-01-15T11:22:39.681Z,0.60
2023-01-15T11:26:56.759Z,0.90
2023-01-15T11:31:14.887Z,1.00
2023-01-15T11:35:34.478Z,0.70
2023-01-15T11:40:08.879Z,0.68
2023-01-15T11:44:44.606Z,0.60
2023-01-15T11:49:27.697Z,0.50
2023-01-15T11:53:51.498Z,0.40
2023-01-15T11:58:09.724Z,0.40
2023-01-15T12:02:50.510Z,0.30
2023-01-15T12:07:13.464Z,1.02
2023-01-15T12:11:39.315Z,0.40
2023-01-15T12:16:29.271Z,0.80
2023-01-15T12:20:57.629Z,0.93
2023-01-15T12:25:43.104Z,0.77
2023-01-15T12:30:23.350Z,2.58
2023-01-15T12:35:18.480Z,2.10
2023-01-15T12:39:47.821Z,2.60
2023-01-15T12:44:27.465Z,0.70
2023-01-15T12:48:57.461Z,0.90
2023-01-15T12:53:25.580Z,1.23
2023-01-15T12:57:47.357Z,0.70
2023-01-15T13:02:26.196Z,0.60
2023-01-15T13:06:51.709Z,0.70
2023-01-15T13:11:12.472Z,3.20
2023-01-15T13:15:37.487Z,1.00
2023-01-15T13:20:22.089Z,0.55
2023-01-15T13:24:53.998Z,0.47
2023-01-15T13:29:32.813Z,0.40
2023-01-15T13:33:55.104Z,0.70
2023-01-15T13:38:19.611Z,0.40
2023-01-15T13:42:38.866Z,1.00
2023-01-15T13:47:03.331Z,0.95
2023-01-15T13:51:32.790Z,0.70
2023-01-15T13:56:01.550Z,0.40
2023-01-15T14:00:31.047Z,3.83
2023-01-15T14:04:48.200Z,1.98
2023-01-15T14:09:05.884Z,0.50
2023-01-15T14:14:02.138Z,0.60
2023-01-15T14:18:38.399Z,1.88
2023-01-15T14:23:04.026Z,0.57
2023-01-15T14:27:59.473Z,0.50
2023-01-15T14:32:51.078Z,0.70
2023-01-15T14:37:29.603Z,0.40
2023-01-15T14:42:05.450Z,1.10
2023-01-15T14:46:30.901Z,1.30
2023-01-15T14:50:49.890Z,0.90
2023-01-15T14:55:10.242Z,0.68
2023-01-15T14:59:36.127Z,1.00
2023-01-15T15:04:20.513Z,0.98
2023-01-15T15:08:41.047Z,0.68
2023-01-15T15:13:07.696Z,0.80
2023-01-15T15:17:39.507Z,1.10
2023-01-15T15:22:00.365Z,0.77
2023-01-15T15:26:29.301Z,0.77
2023-01-15T15:30:47.007Z,0.70
2023-01-15T15:35:04.479Z,0.83
2023-01-15T15:39:44.838Z,1.08
2023-01-15T15:44:21.033Z,0.77
2023-01-15T15:48:41.760Z,1.00
2023-01-15T15:53:04.161Z,2.08
2023-01-15T15:57:21.290Z,2.90
2023-01-15T16:01:39.194Z,1.40
2023-01-15T16:06:05.973Z,0.98
2023-01-15T16:10:31.841Z,0.73
2023-01-15T16:14:49.818Z,1.00
2023-01-15T16:19:10.378Z,1.45
2023-01-15T16:23:29.723Z,0.80
2023-01-15T16:27:47.022Z,1.33
2023-01-15T16:32:12.085Z,0.90
2023-01-15T16:36:39.583Z,1.23
2023-01-15T16:40:56.924Z,1.10
2023-01-15T16:45:25.960Z,1.33
2023-01-15T16:49:43.462Z,1.10
2023-01-15T16:54:03.609Z,2.78
2023-01-15T16:58:30.938Z,1.83
2023-01-15T17:02:48.075Z,1.80
2023-01-15T17:07:14.034Z,1.70
2023-01-15T17:11:33.428Z,1.88
2023-01-15T17:16:16.544Z,1.83
2023-01-15T17:20:35.186Z,1.70
2023-01-15T17:24:55.030Z,1.58
2023-01-15T17:29:12.617Z,1.15
2023-01-15T17:33:33.992Z,1.25
2023-01-15T17:37:51.184Z,0.98
2023-01-15T17:42:16.835Z,0.98
2023-01-15T17:46:33.966Z,0.80
2023-01-15T17:50:51.168Z,1.23
2023-01-15T17:55:29.992Z,1.10
2023-01-15T18:00:05.752Z,0.90
2023-01-15T18:04:54.686Z,1.00
2023-01-15T18:09:12.983Z,1.35
2023-01-15T18:13:30.103Z,8.48
2023-01-15T18:17:47.375Z,16.95
2023-01-15T18:22:04.691Z,1.92
2023-01-15T18:26:21.913Z,1.80
2023-01-15T18:30:39.015Z,1.40
2023-01-15T18:34:56.324Z,0.90
2023-01-15T18:39:13.908Z,0.95
2023-01-15T18:43:49.756Z,1.40
2023-01-15T18:48:06.863Z,1.10
2023-01-15T18:52:42.810Z,0.95
2023-01-15T18:56:59.858Z,1.42
2023-01-15T19:01:17.152Z,1.00
2023-01-15T19:05:34.371Z,1.23
2023-01-15T19:09:53.035Z,1.35
2023-01-15T19:14:29.020Z,1.10
2023-01-15T19:18:53.328Z,1.20
2023-01-15T19:23:10.473Z,2.05
2023-01-15T19:27:27.545Z,1.98
2023-01-15T19:31:44.634Z,1.02
2023-01-15T19:36:02.111Z,2.00
2023-01-15T19:40:29.104Z,1.17
2023-01-15T19:45:04.995Z,3.80
2023-01-15T19:49:41.626Z,1.73
2023-01-15T19:54:02.355Z,1.77
2023-01-15T19:58:19.827Z,1.25
2023-01-15T20:02:37.289Z,2.03
2023-01-15T20:06:54.395Z,1.40
2023-01-15T20:11:11.485Z,1.40
2023-01-15T20:15:28.971Z,1.20
2023-01-15T20:19:46.047Z,1.52
2023-01-15T20:24:03.289Z,1.90
2023-01-15T20:28:20.882Z,1.70
2023-01-15T20:32:41.141Z,1.30
2023-01-15T20:36:58.197Z,1.67
2023-01-15T20:41:34.073Z,1.98
2023-01-15T20:45:51.997Z,2.00
2023-01-15T20:50:11.100Z,1.58
2023-01-15T20:54:28.589Z,1.40
2023-01-15T20:58:46.187Z,0.98
2023-01-15T21:03:04.836Z,1.90
2023-01-15T21:07:23.771Z,1.40
2023-01-15T21:11:40.859Z,2.17
2023-01-15T21:16:07.320Z,1.42
2023-01-15T21:20:24.523Z,1.95
2023-01-15T21:24:41.755Z,1.10
2023-01-15T21:28:58.869Z,1.10
2023-01-15T21:33:15.939Z,0.82
2023-01-15T21:37:33.058Z,1.00
2023-01-15T21:42:09.049Z,0.98
2023-01-15T21:46:27.948Z,1.13
2023-01-15T21:50:45.053Z,0.98
2023-01-15T21:55:02.285Z,1.40
2023-01-15T21:59:21.819Z,1.10
2023-01-15T22:03:40.074Z,1.40
2023-01-15T22:07:57.261Z,1.10
2023-01-15T22:12:14.358Z,1.25
2023-01-15T22:16:31.461Z,1.20
2023-01-15T22:20:57.183Z,1.23
2023-01-15T22:25:15.699Z,1.40
2023-01-15T22:29:38.216Z,1.17
2023-01-15T22:33:58.062Z,1.60
2023-01-15T22:38:15.136Z,1.40
2023-01-15T22:42:32.903Z,1.73
2023-01-15T22:46:50.519Z,1.38
2023-01-15T22:51:07.586Z,1.17
2023-01-15T22:55:24.897Z,1.33
2023-01-15T22:59:44.302Z,1.13
2023-01-15T23:04:02.176Z,1.48
2023-01-15T23:08:19.290Z,1.63
2023-01-15T23:12:36.511Z,1.40
2023-01-15T23:16:53.616Z,1.48
2023-01-15T23:21:13.736Z,1.10
2023-01-15T23:25:30.794Z,1.30
2023-01-15T23:29:47.849Z,1.10
2023-01-15T23:34:06.067Z,1.30
2023-01-15T23:38:23.135Z,1.20
2023-01-15T23:42:59.162Z,1.35
2023-01-15T23:47:16.232Z,1.10
2023-01-15T23:51:34.222Z,1.63
2023-01-15T23:55:51.332Z,1.02
